Main page
METAR-TAF:

METAR-TAF

Airports :

Urmia Airport

Urmia, Iran

latitude: 37-32N, longitude: 045-05E, elevation: 1297 m

Current weather observation

The report was made 55 minutes ago, at 00:00 UTC
Wind 2 kt from the West/Southwest
Temperature 15°C
Humidity 77%
Pressure 1016 hPa
Visibility 10 km or more
no clouds below 1500 m and no cumulonimbus

METAR: OITR 210000Z 25002KT CAVOK 15/11 Q1016

Time: 05:25 (00:55 UTC)

Forecast

The report was made 1 hour and 55 minutes ago, at 23:00 UTC
Forecast valid from 21 at 00 UTC to 22 at 06 UTC
Wind 8 kt from the West/Northwest
Visibility: 8000 m
Few clouds at a height of 3500 ft
Temporary
from 21 at 09 UTC to 21 at 12 UTC
Wind 14 kt from the Northeast

TAF: OITR 202300Z 2100/2206 30004MPS 8000 FEW035 TEMPO 2109/2112 05007MPS

Weather observations and forecasts of more than 4000 airports (METAR and TAF reports).

The available stations are represented by yellow and red dots on the map.

Hover mouse over dot to see the name of the station.

Then click to see weather observations and forecasts.

To change the map : click on the green buttons with a black cross to zoom in, on the green button with a dash to zoom out, or on the green arrows for adjacent maps.


METAR-TAF: